Time;durP1;ratioP1;P1;durP2;ratioP2;P2;SDS_P1;SDS_P2;PMS_P1;PMS_P2;Temp;Humidity;BMP_temperature;BMP_pressure;BME280_temperature;BME280_humidity;BME280_pressure;Samples;Min_cycle;Max_cycle;Signal;HPM_P1;HPM_P2
2023/04/04 00:01:57;;;;;;;1.20;1.20;;;;;;;;;;4978370;28;20236;-59
2023/04/04 00:04:23;;;;;;;1.30;1.30;;;;;;;;;;4981365;28;20542;-60
2023/04/04 00:06:50;;;;;;;1.10;1.10;;;;;;;;;;4977268;28;20209;-61
2023/04/04 00:09:17;;;;;;;1.10;1.10;;;;;;;;;;4978745;28;20198;-59
2023/04/04 00:11:42;;;;;;;1.20;1.20;;;;;;;;;;4974126;28;20246;-60
2023/04/04 00:14:08;;;;;;;1.30;1.30;;;;;;;;;;4975263;28;20211;-60
2023/04/04 00:16:35;;;;;;;1.20;1.20;;;;;;;;;;4980944;28;20275;-60
2023/04/04 00:19:01;;;;;;;1.20;1.20;;;;;;;;;;4981403;28;20183;-60
2023/04/04 00:21:26;;;;;;;1.40;1.40;;;;;;;;;;4976993;28;20222;-60
2023/04/04 00:23:53;;;;;;;1.60;1.60;;;;;;;;;;4974822;28;20190;-60
2023/04/04 00:26:20;;;;;;;1.20;1.20;;;;;;;;;;4977005;28;20226;-60
2023/04/04 00:28:46;;;;;;;1.20;1.20;;;;;;;;;;4976440;28;20194;-61
2023/04/04 00:31:12;;;;;;;1.27;1.27;;;;;;;;;;4967971;28;20201;-60
2023/04/04 00:33:38;;;;;;;1.27;1.27;;;;;;;;;;4975556;28;20223;-60
2023/04/04 00:36:04;;;;;;;1.30;1.30;;;;;;;;;;4976162;28;20194;-60
2023/04/04 00:38:30;;;;;;;1.23;1.23;;;;;;;;;;4974671;28;20197;-60
2023/04/04 00:40:56;;;;;;;1.30;1.30;;;;;;;;;;4971257;28;20222;-60
2023/04/04 00:43:22;;;;;;;1.10;1.10;;;;;;;;;;4978442;28;20190;-60
2023/04/04 00:45:48;;;;;;;1.10;1.10;;;;;;;;;;4975099;28;20191;-60
2023/04/04 00:48:14;;;;;;;1.00;1.00;;;;;;;;;;4963635;28;20221;-60
2023/04/04 00:50:40;;;;;;;1.27;1.27;;;;;;;;;;4975941;28;20598;-60
2023/04/04 00:53:06;;;;;;;1.30;1.30;;;;;;;;;;4978168;28;20261;-60
2023/04/04 00:55:32;;;;;;;1.30;1.30;;;;;;;;;;4978302;28;20199;-60
2023/04/04 00:57:58;;;;;;;1.33;1.33;;;;;;;;;;4979106;28;20191;-60
2023/04/04 01:00:24;;;;;;;1.30;1.30;;;;;;;;;;4973065;28;20198;-60
2023/04/04 01:02:50;;;;;;;1.40;1.40;;;;;;;;;;4974175;28;20190;-60
2023/04/04 01:05:16;;;;;;;1.30;1.30;;;;;;;;;;4957299;28;20664;-60
2023/04/04 01:07:42;;;;;;;1.40;1.40;;;;;;;;;;4978831;28;20249;-60
2023/04/04 01:10:08;;;;;;;1.53;1.53;;;;;;;;;;4978867;28;20184;-60
2023/04/04 01:12:34;;;;;;;1.60;1.60;;;;;;;;;;4978177;28;20199;-60
2023/04/04 01:15:00;;;;;;;1.70;1.70;;;;;;;;;;4970599;28;20215;-60
2023/04/04 01:17:27;;;;;;;1.60;1.60;;;;;;;;;;4979373;28;20178;-60
2023/04/04 01:20:12;;;;;;;1.70;1.70;;;;;;;;;;4977610;28;20179;-60
2023/04/04 01:22:38;;;;;;;1.50;1.50;;;;;;;;;;4977618;28;20202;-60
2023/04/04 01:25:04;;;;;;;1.20;1.20;;;;;;;;;;4976400;28;20200;-60
2023/04/04 01:27:30;;;;;;;1.30;1.30;;;;;;;;;;4976750;28;20202;-60
2023/04/04 01:29:56;;;;;;;1.40;1.40;;;;;;;;;;4975872;28;20692;-60
2023/04/04 01:32:27;;;;;;;1.30;1.30;;;;;;;;;;4972584;28;20198;-60
2023/04/04 01:35:15;;;;;;;1.30;1.30;;;;;;;;;;4957679;28;20222;-60
2023/04/04 01:37:43;;;;;;;1.20;1.20;;;;;;;;;;4980382;28;20182;-60
2023/04/04 01:40:28;;;;;;;1.50;1.50;;;;;;;;;;4975804;28;20464;-60
2023/04/04 01:42:54;;;;;;;1.40;1.40;;;;;;;;;;4973091;28;20197;-60
2023/04/04 01:45:23;;;;;;;1.20;1.20;;;;;;;;;;4975050;28;20183;-60
2023/04/04 01:47:49;;;;;;;1.23;1.23;;;;;;;;;;4968486;28;20225;-60
2023/04/04 01:50:15;;;;;;;1.30;1.30;;;;;;;;;;4979603;28;20662;-61
2023/04/04 01:52:41;;;;;;;1.43;1.43;;;;;;;;;;4979991;28;20198;-60
2023/04/04 01:55:08;;;;;;;1.30;1.30;;;;;;;;;;4977703;28;20238;-60
2023/04/04 01:57:34;;;;;;;1.20;1.20;;;;;;;;;;4982059;28;20605;-60
2023/04/04 02:00:00;;;;;;;1.20;1.20;;;;;;;;;;4977782;28;20590;-60
2023/04/04 02:02:26;;;;;;;1.40;1.40;;;;;;;;;;4979837;28;20194;-60
2023/04/04 02:04:52;;;;;;;1.20;1.20;;;;;;;;;;4977784;28;20191;-60
2023/04/04 02:07:18;;;;;;;1.40;1.40;;;;;;;;;;4975988;28;20224;-60
2023/04/04 02:09:44;;;;;;;1.90;1.80;;;;;;;;;;4976209;28;20226;-60
2023/04/04 02:12:10;;;;;;;1.70;1.70;;;;;;;;;;4978852;28;20663;-60
2023/04/04 02:14:36;;;;;;;1.63;1.63;;;;;;;;;;4973256;28;20217;-60
2023/04/04 02:17:02;;;;;;;1.60;1.60;;;;;;;;;;4977380;28;20226;-60
2023/04/04 02:19:28;;;;;;;1.60;1.60;;;;;;;;;;4974945;28;20233;-60
2023/04/04 02:21:55;;;;;;;1.73;1.70;;;;;;;;;;4974125;28;20195;-60
2023/04/04 02:24:21;;;;;;;1.63;1.63;;;;;;;;;;4973482;28;20191;-61
2023/04/04 02:26:47;;;;;;;1.57;1.57;;;;;;;;;;4976047;28;20217;-59
2023/04/04 02:29:13;;;;;;;1.50;1.50;;;;;;;;;;4974836;28;20183;-60
2023/04/04 02:31:39;;;;;;;1.83;1.73;;;;;;;;;;4975950;28;20722;-60
2023/04/04 02:34:05;;;;;;;1.60;1.60;;;;;;;;;;4974915;28;20309;-60
2023/04/04 02:36:31;;;;;;;1.30;1.30;;;;;;;;;;4974727;28;20313;-60
2023/04/04 02:38:57;;;;;;;2.60;2.50;;;;;;;;;;4974463;28;20195;-60
2023/04/04 02:41:23;;;;;;;2.50;2.40;;;;;;;;;;4972229;28;20286;-60
2023/04/04 02:43:49;;;;;;;1.10;1.10;;;;;;;;;;4978513;28;20198;-60
2023/04/04 02:46:15;;;;;;;1.30;1.30;;;;;;;;;;4974633;28;20190;-60
2023/04/04 02:48:41;;;;;;;2.73;2.63;;;;;;;;;;4976352;28;20195;-60
2023/04/04 02:51:06;;;;;;;2.80;2.70;;;;;;;;;;4974082;28;20201;-60
2023/04/04 02:53:32;;;;;;;2.70;2.60;;;;;;;;;;4976846;28;20309;-60
2023/04/04 02:55:58;;;;;;;2.50;2.40;;;;;;;;;;4976380;28;20198;-60
2023/04/04 02:58:24;;;;;;;2.90;2.80;;;;;;;;;;4975649;28;20190;-60
2023/04/04 03:00:54;;;;;;;2.90;2.80;;;;;;;;;;4969937;28;20213;-60
2023/04/04 03:03:20;;;;;;;2.50;2.40;;;;;;;;;;4975291;28;20194;-60
2023/04/04 03:05:48;;;;;;;2.40;2.30;;;;;;;;;;4965866;28;20722;-60
2023/04/04 03:08:14;;;;;;;2.57;2.47;;;;;;;;;;4977513;28;20537;-60
2023/04/04 03:10:40;;;;;;;2.43;2.33;;;;;;;;;;4976894;28;20197;-60
2023/04/04 03:13:06;;;;;;;2.30;2.20;;;;;;;;;;4977077;28;20590;-60
2023/04/04 03:15:32;;;;;;;2.43;2.33;;;;;;;;;;4974586;28;20194;-60
2023/04/04 03:17:58;;;;;;;2.77;2.67;;;;;;;;;;4979579;28;20201;-60
2023/04/04 03:20:25;;;;;;;2.10;2.00;;;;;;;;;;4979472;28;20194;-60
2023/04/04 03:22:51;;;;;;;1.90;1.80;;;;;;;;;;4981965;28;20671;-60
2023/04/04 03:25:17;;;;;;;2.47;2.37;;;;;;;;;;4981701;28;20241;-60
2023/04/04 03:27:43;;;;;;;2.20;2.10;;;;;;;;;;4980916;28;20217;-61
2023/04/04 03:30:09;;;;;;;2.30;2.20;;;;;;;;;;4974800;28;20742;-60
2023/04/04 03:32:36;;;;;;;2.50;2.40;;;;;;;;;;4967554;28;20194;-60
2023/04/04 03:35:02;;;;;;;2.23;2.13;;;;;;;;;;4977653;28;20302;-60
2023/04/04 03:37:29;;;;;;;3.30;3.20;;;;;;;;;;4979868;28;20266;-60
2023/04/04 03:39:55;;;;;;;3.60;3.50;;;;;;;;;;4976165;28;20814;-60
2023/04/04 03:42:20;;;;;;;2.00;1.90;;;;;;;;;;4978944;28;20285;-59
2023/04/04 03:44:46;;;;;;;1.80;1.70;;;;;;;;;;4974809;28;20194;-60
2023/04/04 03:47:15;;;;;;;3.07;2.97;;;;;;;;;;4972925;28;20254;-60
2023/04/04 03:49:41;;;;;;;3.03;2.93;;;;;;;;;;4976622;28;20214;-60
2023/04/04 03:52:07;;;;;;;2.70;2.60;;;;;;;;;;4982593;28;20224;-60
2023/04/04 03:54:33;;;;;;;2.80;2.70;;;;;;;;;;4978671;28;20222;-60
2023/04/04 03:56:59;;;;;;;2.80;2.70;;;;;;;;;;4978972;28;20190;-60
2023/04/04 03:59:25;;;;;;;2.53;2.43;;;;;;;;;;4961347;28;20238;-60
2023/04/04 04:01:51;;;;;;;2.80;2.70;;;;;;;;;;4973556;28;20190;-60
2023/04/04 04:04:17;;;;;;;2.60;2.50;;;;;;;;;;4976324;28;20200;-60
2023/04/04 04:06:43;;;;;;;2.60;2.50;;;;;;;;;;4977340;28;20190;-60
2023/04/04 04:09:11;;;;;;;2.60;2.50;;;;;;;;;;4978711;28;20269;-60
2023/04/04 04:11:36;;;;;;;2.60;2.50;;;;;;;;;;4978969;28;20206;-60
2023/04/04 04:14:02;;;;;;;2.80;2.70;;;;;;;;;;4975340;28;20218;-59
2023/04/04 04:16:28;;;;;;;2.23;2.13;;;;;;;;;;4979403;28;20183;-60
2023/04/04 04:18:54;;;;;;;2.50;2.40;;;;;;;;;;4979252;28;20187;-60
2023/04/04 04:21:20;;;;;;;2.50;2.40;;;;;;;;;;4978738;28;20276;-60
2023/04/04 04:23:46;;;;;;;2.70;2.60;;;;;;;;;;4978517;28;20245;-60
2023/04/04 04:26:12;;;;;;;2.53;2.43;;;;;;;;;;4982520;28;20195;-60
2023/04/04 04:28:38;;;;;;;2.40;2.30;;;;;;;;;;4977406;28;20199;-60
2023/04/04 04:31:07;;;;;;;2.47;2.37;;;;;;;;;;4979584;28;20319;-59
2023/04/04 04:33:33;;;;;;;2.70;2.60;;;;;;;;;;4976955;28;20225;-60
2023/04/04 04:36:00;;;;;;;2.27;2.17;;;;;;;;;;4981981;28;20193;-60
2023/04/04 04:38:27;;;;;;;2.33;2.23;;;;;;;;;;4974998;28;20198;-60
2023/04/04 04:40:53;;;;;;;3.10;3.00;;;;;;;;;;4980239;28;20234;-60
2023/04/04 04:43:19;;;;;;;2.00;1.90;;;;;;;;;;4980105;28;20663;-60
2023/04/04 04:45:45;;;;;;;1.83;1.73;;;;;;;;;;4978891;28;20607;-60
2023/04/04 04:48:12;;;;;;;1.60;1.60;;;;;;;;;;4976733;28;20247;-60
2023/04/04 04:50:38;;;;;;;1.70;1.70;;;;;;;;;;4975013;28;20194;-59
2023/04/04 04:53:04;;;;;;;2.10;2.00;;;;;;;;;;4978871;28;20206;-60
2023/04/04 04:55:30;;;;;;;1.87;1.77;;;;;;;;;;4978147;28;20198;-59
2023/04/04 04:57:56;;;;;;;1.60;1.60;;;;;;;;;;4977571;28;21263;-60
2023/04/04 05:00:22;;;;;;;1.70;1.70;;;;;;;;;;4977836;28;20186;-60
2023/04/04 05:02:48;;;;;;;1.60;1.60;;;;;;;;;;4975962;28;20274;-60
2023/04/04 05:05:15;;;;;;;1.30;1.30;;;;;;;;;;4974040;28;20195;-60
2023/04/04 05:07:46;;;;;;;1.43;1.43;;;;;;;;;;4977818;28;20201;-59
2023/04/04 05:10:12;;;;;;;1.40;1.40;;;;;;;;;;4977002;28;20252;-60
2023/04/04 05:12:43;;;;;;;1.67;1.67;;;;;;;;;;4979164;28;20198;-60
2023/04/04 05:15:09;;;;;;;1.40;1.40;;;;;;;;;;4967585;28;20281;-59
2023/04/04 05:17:35;;;;;;;1.40;1.40;;;;;;;;;;4976078;28;20197;-59
2023/04/04 05:20:01;;;;;;;1.60;1.60;;;;;;;;;;4977637;28;20195;-60
2023/04/04 05:22:27;;;;;;;1.60;1.60;;;;;;;;;;4977551;28;20480;-60
2023/04/04 05:24:53;;;;;;;1.60;1.60;;;;;;;;;;4973819;28;20285;-59
2023/04/04 05:27:19;;;;;;;1.50;1.50;;;;;;;;;;4979270;28;20281;-60
2023/04/04 05:29:46;;;;;;;1.50;1.50;;;;;;;;;;4968039;28;20624;-59
2023/04/04 05:32:12;;;;;;;1.40;1.40;;;;;;;;;;4973578;28;20194;-60
2023/04/04 05:34:38;;;;;;;1.80;1.70;;;;;;;;;;4975505;28;20219;-59
2023/04/04 05:37:04;;;;;;;1.50;1.50;;;;;;;;;;4976275;28;20195;-59
2023/04/04 05:39:30;;;;;;;1.90;1.80;;;;;;;;;;4966159;28;20254;-60
2023/04/04 05:41:56;;;;;;;1.60;1.60;;;;;;;;;;4976394;28;20685;-59
2023/04/04 05:44:22;;;;;;;1.40;1.40;;;;;;;;;;4972816;28;20187;-60
2023/04/04 05:46:48;;;;;;;1.60;1.60;;;;;;;;;;4972509;28;20194;-60
2023/04/04 05:49:14;;;;;;;1.50;1.50;;;;;;;;;;4979546;28;20198;-60
2023/04/04 05:51:40;;;;;;;1.40;1.40;;;;;;;;;;4977256;28;20205;-59
2023/04/04 05:54:06;;;;;;;1.37;1.37;;;;;;;;;;4972755;28;20206;-59
2023/04/04 05:56:32;;;;;;;1.40;1.40;;;;;;;;;;4970877;28;20190;-58
2023/04/04 05:58:58;;;;;;;1.50;1.50;;;;;;;;;;4970943;28;20655;-59
2023/04/04 06:01:24;;;;;;;1.90;1.80;;;;;;;;;;4963730;28;20191;-59
2023/04/04 06:03:51;;;;;;;1.60;1.60;;;;;;;;;;4970823;28;20201;-59
2023/04/04 06:06:17;;;;;;;1.60;1.60;;;;;;;;;;4974862;28;20588;-59
2023/04/04 06:08:43;;;;;;;1.77;1.70;;;;;;;;;;4977403;28;21432;-59
2023/04/04 06:11:09;;;;;;;1.50;1.50;;;;;;;;;;4979760;28;20194;-59
2023/04/04 06:13:35;;;;;;;1.50;1.50;;;;;;;;;;4973430;28;20742;-60
2023/04/04 06:16:01;;;;;;;2.20;2.10;;;;;;;;;;4966543;28;20190;-60
2023/04/04 06:18:26;;;;;;;1.90;1.80;;;;;;;;;;4972118;28;20190;-60
2023/04/04 06:20:52;;;;;;;2.00;1.90;;;;;;;;;;4966743;28;20182;-60
2023/04/04 06:23:18;;;;;;;2.03;1.93;;;;;;;;;;4972859;28;20605;-60
2023/04/04 06:25:44;;;;;;;1.60;1.60;;;;;;;;;;4971694;28;20197;-60
2023/04/04 06:28:12;;;;;;;1.70;1.70;;;;;;;;;;4963967;28;20898;-60
2023/04/04 06:30:38;;;;;;;2.00;1.90;;;;;;;;;;4969380;28;20194;-60
2023/04/04 06:33:04;;;;;;;2.10;2.00;;;;;;;;;;4970062;28;21018;-60
2023/04/04 06:35:31;;;;;;;2.00;1.90;;;;;;;;;;4963134;28;20199;-60
2023/04/04 06:37:57;;;;;;;2.10;2.00;;;;;;;;;;4974104;28;20178;-61
2023/04/04 06:40:23;;;;;;;2.00;1.90;;;;;;;;;;4967234;28;20237;-61
2023/04/04 06:42:49;;;;;;;2.20;2.10;;;;;;;;;;4973439;28;20662;-60
2023/04/04 06:45:16;;;;;;;2.20;2.10;;;;;;;;;;4969477;28;20344;-60
2023/04/04 06:47:42;;;;;;;2.10;2.00;;;;;;;;;;4972514;28;20209;-60
2023/04/04 06:50:08;;;;;;;1.90;1.80;;;;;;;;;;4971812;28;20559;-59
2023/04/04 06:52:34;;;;;;;2.00;1.90;;;;;;;;;;4975509;28;20203;-60
2023/04/04 06:55:00;;;;;;;2.00;1.90;;;;;;;;;;4968823;28;20209;-60
2023/04/04 06:57:26;;;;;;;1.90;1.80;;;;;;;;;;4964029;28;20191;-60
2023/04/04 06:59:53;;;;;;;2.10;2.00;;;;;;;;;;4969779;28;20198;-60
2023/04/04 07:02:18;;;;;;;1.80;1.70;;;;;;;;;;4955616;28;20191;-60
2023/04/04 07:04:45;;;;;;;1.90;1.80;;;;;;;;;;4962293;28;20225;-60
2023/04/04 07:07:11;;;;;;;2.20;2.10;;;;;;;;;;4955880;28;20293;-60
2023/04/04 07:09:37;;;;;;;2.27;2.17;;;;;;;;;;4972706;28;20257;-61
2023/04/04 07:12:03;;;;;;;2.50;2.40;;;;;;;;;;4976822;28;20210;-60
2023/04/04 07:14:29;;;;;;;2.40;2.30;;;;;;;;;;4974043;28;20286;-60
2023/04/04 07:16:55;;;;;;;2.30;2.20;;;;;;;;;;4966022;28;20198;-61
2023/04/04 07:19:27;;;;;;;2.50;2.40;;;;;;;;;;4974985;28;20190;-61
2023/04/04 07:21:54;;;;;;;2.30;2.20;;;;;;;;;;4975050;28;20182;-60
2023/04/04 07:24:20;;;;;;;2.20;2.10;;;;;;;;;;4978658;28;20277;-60
2023/04/04 07:26:46;;;;;;;2.40;2.30;;;;;;;;;;4979086;28;20277;-60
2023/04/04 07:29:12;;;;;;;2.50;2.40;;;;;;;;;;4972444;28;20293;-60
2023/04/04 07:31:38;;;;;;;2.07;1.97;;;;;;;;;;4972755;28;20194;-60
2023/04/04 07:34:04;;;;;;;2.10;2.00;;;;;;;;;;4967214;28;20697;-60
2023/04/04 07:36:30;;;;;;;1.40;1.40;;;;;;;;;;4973150;28;20198;-60
2023/04/04 07:38:56;;;;;;;1.63;1.63;;;;;;;;;;4974620;28;20187;-61
2023/04/04 07:41:22;;;;;;;1.30;1.30;;;;;;;;;;4975137;28;20241;-60
2023/04/04 07:43:48;;;;;;;2.10;2.00;;;;;;;;;;4973160;28;20223;-61
2023/04/04 07:46:15;;;;;;;2.30;2.20;;;;;;;;;;4976353;28;20260;-60
2023/04/04 07:48:41;;;;;;;2.43;2.33;;;;;;;;;;4974992;28;20189;-61
2023/04/04 07:51:08;;;;;;;2.00;1.90;;;;;;;;;;4974903;28;20195;-61
2023/04/04 07:53:33;;;;;;;2.60;2.50;;;;;;;;;;4976499;28;20221;-61
2023/04/04 07:56:05;;;;;;;2.57;2.47;;;;;;;;;;4975023;28;20194;-61
2023/04/04 07:58:31;;;;;;;2.80;2.70;;;;;;;;;;4977912;28;20222;-61
2023/04/04 08:00:57;;;;;;;2.60;2.50;;;;;;;;;;4975643;28;20191;-61
2023/04/04 08:03:24;;;;;;;2.90;2.80;;;;;;;;;;4966338;28;20264;-61
2023/04/04 08:05:50;;;;;;;2.70;2.60;;;;;;;;;;4965063;28;20210;-61
2023/04/04 08:08:16;;;;;;;2.17;2.07;;;;;;;;;;4975073;28;20199;-62
2023/04/04 08:10:44;;;;;;;1.80;1.70;;;;;;;;;;4980269;28;20191;-61
2023/04/04 08:13:10;;;;;;;2.90;2.80;;;;;;;;;;4978766;28;21119;-61
2023/04/04 08:15:36;;;;;;;1.23;1.23;;;;;;;;;;4974532;28;20205;-61
2023/04/04 08:18:01;;;;;;;1.10;1.10;;;;;;;;;;4976637;28;20191;-61
2023/04/04 08:20:28;;;;;;;0.70;0.70;;;;;;;;;;4976855;28;20194;-61
2023/04/04 08:22:53;;;;;;;1.63;1.63;;;;;;;;;;4975960;28;20201;-61
2023/04/04 08:25:19;;;;;;;2.20;2.10;;;;;;;;;;4975621;28;20199;-61
2023/04/04 08:27:45;;;;;;;1.90;1.80;;;;;;;;;;4974997;28;21507;-61
2023/04/04 08:30:13;;;;;;;2.37;2.27;;;;;;;;;;4977836;28;20206;-61
2023/04/04 08:32:39;;;;;;;1.10;1.10;;;;;;;;;;4972663;28;20206;-61
2023/04/04 08:35:05;;;;;;;1.10;1.10;;;;;;;;;;4973933;28;20214;-61
2023/04/04 08:37:31;;;;;;;1.20;1.20;;;;;;;;;;4977519;28;20198;-61
2023/04/04 08:39:58;;;;;;;1.30;1.30;;;;;;;;;;4978597;28;20325;-61
2023/04/04 08:42:24;;;;;;;1.30;1.30;;;;;;;;;;4978684;28;20381;-61
2023/04/04 08:44:51;;;;;;;1.20;1.20;;;;;;;;;;4977265;28;20686;-62
2023/04/04 08:47:17;;;;;;;1.07;1.07;;;;;;;;;;4977825;28;20298;-61
2023/04/04 08:49:43;;;;;;;1.10;1.10;;;;;;;;;;4975662;28;20273;-61
2023/04/04 08:52:11;;;;;;;0.90;0.90;;;;;;;;;;4980339;28;20291;-61
2023/04/04 08:54:38;;;;;;;0.90;0.90;;;;;;;;;;4978875;28;20212;-61
2023/04/04 08:57:04;;;;;;;0.90;0.90;;;;;;;;;;4978475;28;20190;-61
2023/04/04 08:59:30;;;;;;;0.70;0.70;;;;;;;;;;4976997;28;20658;-62
2023/04/04 09:02:08;;;;;;;0.90;0.90;;;;;;;;;;4957641;28;20194;-61
2023/04/04 09:04:34;;;;;;;1.10;1.10;;;;;;;;;;4974920;28;20205;-61
2023/04/04 09:07:03;;;;;;;0.90;0.90;;;;;;;;;;4978537;28;20189;-61
2023/04/04 09:09:33;;;;;;;0.70;0.70;;;;;;;;;;4975317;28;20201;-61
2023/04/04 09:12:00;;;;;;;1.30;1.30;;;;;;;;;;4980108;28;20217;-62
2023/04/04 09:14:26;;;;;;;0.70;0.70;;;;;;;;;;4973034;28;20668;-61
2023/04/04 09:16:52;;;;;;;0.70;0.70;;;;;;;;;;4970445;28;20281;-61
2023/04/04 09:19:18;;;;;;;0.70;0.70;;;;;;;;;;4968863;28;20194;-62
2023/04/04 09:21:47;;;;;;;1.20;1.20;;;;;;;;;;4968254;28;20233;-61
2023/04/04 09:24:14;;;;;;;0.80;0.80;;;;;;;;;;4963559;28;20226;-62
2023/04/04 09:26:46;;;;;;;1.30;1.30;;;;;;;;;;4967547;28;20182;-62
2023/04/04 09:29:13;;;;;;;0.80;0.80;;;;;;;;;;4972501;28;20213;-62
2023/04/04 09:31:38;;;;;;;1.20;1.20;;;;;;;;;;4968228;28;20186;-64
2023/04/04 09:34:04;;;;;;;0.70;0.70;;;;;;;;;;4978440;28;20219;-63
2023/04/04 09:36:31;;;;;;;1.10;1.10;;;;;;;;;;4973579;28;20304;-62
2023/04/04 09:38:56;;;;;;;1.50;1.50;;;;;;;;;;4966219;28;20567;-61
2023/04/04 09:41:22;;;;;;;0.90;0.90;;;;;;;;;;4971555;28;20197;-61
2023/04/04 09:43:48;;;;;;;0.80;0.80;;;;;;;;;;4958886;28;20198;-64
2023/04/04 09:46:14;;;;;;;1.10;1.10;;;;;;;;;;4953948;28;20643;-62
2023/04/04 09:48:41;;;;;;;1.10;1.10;;;;;;;;;;4958000;28;20233;-62
2023/04/04 09:51:08;;;;;;;1.20;1.20;;;;;;;;;;4966152;28;21147;-62
2023/04/04 09:53:38;;;;;;;1.20;1.20;;;;;;;;;;4965875;28;20273;-62
2023/04/04 09:56:05;;;;;;;1.20;1.20;;;;;;;;;;4970979;28;20189;-67
2023/04/04 09:58:34;;;;;;;0.82;0.82;;;;;;;;;;4965831;28;20190;-64
2023/04/04 10:01:01;;;;;;;0.77;0.77;;;;;;;;;;4970478;28;20201;-64
2023/04/04 10:03:27;;;;;;;1.10;1.10;;;;;;;;;;4970097;28;20590;-65
2023/04/04 10:05:59;;;;;;;1.20;1.20;;;;;;;;;;4973502;28;20190;-64
2023/04/04 10:08:26;;;;;;;1.20;1.20;;;;;;;;;;4970004;28;20345;-62
2023/04/04 10:10:52;;;;;;;1.10;1.10;;;;;;;;;;4972868;28;20200;-63
2023/04/04 10:13:24;;;;;;;1.10;1.10;;;;;;;;;;4961062;28;20280;-63
2023/04/04 10:15:52;;;;;;;1.10;1.10;;;;;;;;;;4973441;28;20724;-62
2023/04/04 10:18:18;;;;;;;1.10;1.10;;;;;;;;;;4974803;28;20674;-63
2023/04/04 10:20:44;;;;;;;1.10;1.10;;;;;;;;;;4954951;28;20191;-60
2023/04/04 10:23:10;;;;;;;1.10;1.10;;;;;;;;;;4975786;28;22127;-60
2023/04/04 10:25:36;;;;;;;1.00;1.00;;;;;;;;;;4972171;28;20187;-60
2023/04/04 10:28:02;;;;;;;1.00;1.00;;;;;;;;;;4980793;28;20194;-60
2023/04/04 10:30:28;;;;;;;0.98;0.98;;;;;;;;;;4961900;28;20183;-61
2023/04/04 10:33:01;;;;;;;1.00;1.00;;;;;;;;;;4969198;28;20267;-60
2023/04/04 10:35:27;;;;;;;1.00;1.00;;;;;;;;;;4967056;28;20234;-60
2023/04/04 10:37:56;;;;;;;0.90;0.90;;;;;;;;;;4971373;28;20185;-60
2023/04/04 10:40:22;;;;;;;1.02;1.02;;;;;;;;;;4960221;28;20218;-61
2023/04/04 10:42:48;;;;;;;0.90;0.90;;;;;;;;;;4962531;28;20183;-61
2023/04/04 10:45:14;;;;;;;0.90;0.90;;;;;;;;;;4969614;28;20195;-63
2023/04/04 10:47:40;;;;;;;0.90;0.90;;;;;;;;;;4953856;28;20198;-60
2023/04/04 10:50:09;;;;;;;0.85;0.85;;;;;;;;;;4964702;28;20190;-61
2023/04/04 10:52:35;;;;;;;0.90;0.90;;;;;;;;;;4969419;28;20243;-60
2023/04/04 10:55:03;;;;;;;0.80;0.80;;;;;;;;;;4968664;28;20674;-60
2023/04/04 10:57:29;;;;;;;0.90;0.90;;;;;;;;;;4974493;28;20210;-60
2023/04/04 10:59:56;;;;;;;0.90;0.90;;;;;;;;;;4970095;28;20286;-61
2023/04/04 11:02:42;;;;;;;0.90;0.90;;;;;;;;;;4971011;28;20183;-60
2023/04/04 11:05:12;;;;;;;0.90;0.90;;;;;;;;;;4976606;28;20214;-60
2023/04/04 11:07:39;;;;;;;0.88;0.88;;;;;;;;;;4973768;28;20201;-61
2023/04/04 11:10:12;;;;;;;0.90;0.90;;;;;;;;;;4955955;28;20682;-61
2023/04/04 11:12:43;;;;;;;0.90;0.90;;;;;;;;;;4968355;28;20194;-61
2023/04/04 11:15:10;;;;;;;0.80;0.80;;;;;;;;;;4953663;28;20203;-61
2023/04/04 11:17:48;;;;;;;0.88;0.88;;;;;;;;;;4976886;28;20662;-60
2023/04/04 11:20:14;;;;;;;0.88;0.88;;;;;;;;;;4970652;28;20261;-61
2023/04/04 11:22:41;;;;;;;0.80;0.80;;;;;;;;;;4974775;28;20655;-60
2023/04/04 11:25:26;;;;;;;0.80;0.80;;;;;;;;;;4975854;28;20558;-61
2023/04/04 11:27:56;;;;;;;0.80;0.80;;;;;;;;;;4976062;28;20602;-61
2023/04/04 11:30:22;;;;;;;0.90;0.90;;;;;;;;;;4966209;28;20309;-61
2023/04/04 11:32:49;;;;;;;0.80;0.80;;;;;;;;;;4958276;28;20190;-60
2023/04/04 11:35:15;;;;;;;0.80;0.80;;;;;;;;;;4946252;28;20246;-60
2023/04/04 11:37:50;;;;;;;0.80;0.80;;;;;;;;;;4951665;28;20191;-60
2023/04/04 11:40:16;;;;;;;0.80;0.80;;;;;;;;;;4958568;28;20758;-58
2023/04/04 11:42:42;;;;;;;0.80;0.80;;;;;;;;;;4967027;28;20199;-58
2023/04/04 11:45:11;;;;;;;0.80;0.80;;;;;;;;;;4962791;28;20245;-58
2023/04/04 11:47:36;;;;;;;1.40;1.40;;;;;;;;;;4981436;28;20253;-58
2023/04/04 11:50:07;;;;;;;0.90;0.90;;;;;;;;;;4959690;28;20194;-58
2023/04/04 11:52:37;;;;;;;1.00;1.00;;;;;;;;;;4981173;28;20186;-58
2023/04/04 11:55:13;;;;;;;1.10;1.10;;;;;;;;;;4968831;28;20203;-58
2023/04/04 11:57:40;;;;;;;1.10;1.10;;;;;;;;;;4962091;28;20195;-58
2023/04/04 12:00:07;;;;;;;1.10;1.10;;;;;;;;;;4969188;28;20194;-60
2023/04/04 12:02:34;;;;;;;1.10;1.10;;;;;;;;;;4973085;28;20256;-60
2023/04/04 12:05:00;;;;;;;1.10;1.10;;;;;;;;;;4973574;28;20209;-59
2023/04/04 12:07:26;;;;;;;1.02;1.02;;;;;;;;;;4974971;28;20186;-60
2023/04/04 12:09:52;;;;;;;1.08;1.08;;;;;;;;;;4959618;28;20187;-58
2023/04/04 12:12:18;;;;;;;1.00;1.00;;;;;;;;;;4970154;28;21058;-60
2023/04/04 12:14:44;;;;;;;1.00;1.00;;;;;;;;;;4960785;28;20222;-60
2023/04/04 12:17:10;;;;;;;0.90;0.90;;;;;;;;;;4969041;28;20210;-60
2023/04/04 12:19:37;;;;;;;0.90;0.90;;;;;;;;;;4962451;28;20178;-59
2023/04/04 12:22:03;;;;;;;0.90;0.90;;;;;;;;;;4963819;28;20179;-60
2023/04/04 12:24:29;;;;;;;1.00;1.00;;;;;;;;;;4969061;28;20198;-59
2023/04/04 12:26:57;;;;;;;1.00;1.00;;;;;;;;;;4970717;28;20285;-58
2023/04/04 12:29:23;;;;;;;1.30;1.30;;;;;;;;;;4957260;28;21056;-60
2023/04/04 12:31:49;;;;;;;1.15;1.15;;;;;;;;;;4967732;28;20252;-60
2023/04/04 12:34:16;;;;;;;0.90;0.90;;;;;;;;;;4970447;28;20211;-58
2023/04/04 12:36:42;;;;;;;0.80;0.80;;;;;;;;;;4957913;28;20649;-59
2023/04/04 12:39:08;;;;;;;0.90;0.90;;;;;;;;;;4955776;28;20202;-58
2023/04/04 12:41:35;;;;;;;0.90;0.90;;;;;;;;;;4938590;28;20202;-59
2023/04/04 12:44:05;;;;;;;0.90;0.90;;;;;;;;;;4971407;28;20253;-58
2023/04/04 12:46:40;;;;;;;0.90;0.90;;;;;;;;;;4969303;28;20631;-59
2023/04/04 12:49:07;;;;;;;0.90;0.90;;;;;;;;;;4960340;28;20201;-59
2023/04/04 12:51:33;;;;;;;1.05;1.05;;;;;;;;;;4966101;28;20202;-59
2023/04/04 12:53:59;;;;;;;1.00;1.00;;;;;;;;;;4964924;28;20207;-59
2023/04/04 12:56:26;;;;;;;1.00;1.00;;;;;;;;;;4966544;28;20225;-61
2023/04/04 12:58:52;;;;;;;1.00;1.00;;;;;;;;;;4971542;28;20187;-67
2023/04/04 13:01:18;;;;;;;1.40;1.40;;;;;;;;;;4969183;28;20198;-60
2023/04/04 13:03:44;;;;;;;1.40;1.40;;;;;;;;;;4958482;28;20222;-60
2023/04/04 13:06:16;;;;;;;1.50;1.50;;;;;;;;;;4966591;28;20193;-60
2023/04/04 13:08:48;;;;;;;1.42;1.42;;;;;;;;;;4962985;28;20191;-62
2023/04/04 13:11:14;;;;;;;1.50;1.50;;;;;;;;;;4970943;28;20636;-62
2023/04/04 13:13:42;;;;;;;1.50;1.50;;;;;;;;;;4967583;28;20226;-59
2023/04/04 13:16:29;;;;;;;1.60;1.60;;;;;;;;;;4968228;28;20198;-59
2023/04/04 13:18:55;;;;;;;1.50;1.50;;;;;;;;;;4968607;28;20860;-59
2023/04/04 13:21:21;;;;;;;1.70;1.70;;;;;;;;;;4976777;28;20238;-61
2023/04/04 13:23:47;;;;;;;1.60;1.60;;;;;;;;;;4967838;28;20256;-71
2023/04/04 13:26:13;;;;;;;1.20;1.20;;;;;;;;;;4970160;28;20276;-62
2023/04/04 13:28:39;;;;;;;1.10;1.10;;;;;;;;;;4961096;28;20182;-62
2023/04/04 13:31:05;;;;;;;1.10;1.10;;;;;;;;;;4965787;28;20194;-62
2023/04/04 13:33:31;;;;;;;1.10;1.10;;;;;;;;;;4947132;28;20210;-61
2023/04/04 13:35:57;;;;;;;1.20;1.20;;;;;;;;;;4960525;28;20236;-61
2023/04/04 13:38:23;;;;;;;1.20;1.20;;;;;;;;;;4971308;28;20205;-61
2023/04/04 13:40:49;;;;;;;1.10;1.10;;;;;;;;;;4961294;28;20249;-61
2023/04/04 13:43:15;;;;;;;1.13;1.13;;;;;;;;;;4971879;28;20186;-61
2023/04/04 13:45:42;;;;;;;1.20;1.20;;;;;;;;;;4957243;28;20198;-62
2023/04/04 13:48:08;;;;;;;1.30;1.30;;;;;;;;;;4960708;28;20229;-62
2023/04/04 13:50:35;;;;;;;1.20;1.20;;;;;;;;;;4972375;28;20182;-62
2023/04/04 13:53:01;;;;;;;1.20;1.20;;;;;;;;;;4967190;28;20546;-62
2023/04/04 13:55:27;;;;;;;1.20;1.20;;;;;;;;;;4957298;28;20213;-61
2023/04/04 13:57:53;;;;;;;1.30;1.30;;;;;;;;;;4963578;28;20605;-61
2023/04/04 14:00:19;;;;;;;1.40;1.40;;;;;;;;;;4966811;28;20182;-61
2023/04/04 14:02:47;;;;;;;1.30;1.30;;;;;;;;;;4971608;28;20698;-61
2023/04/04 14:05:13;;;;;;;1.30;1.30;;;;;;;;;;4965052;28;20191;-58
2023/04/04 14:07:40;;;;;;;1.20;1.20;;;;;;;;;;4964591;28;20206;-58
2023/04/04 14:10:06;;;;;;;1.20;1.20;;;;;;;;;;4962504;28;20187;-59
2023/04/04 14:12:32;;;;;;;1.20;1.20;;;;;;;;;;4967105;28;20198;-59
2023/04/04 14:14:58;;;;;;;1.10;1.10;;;;;;;;;;4972501;28;20246;-58
2023/04/04 14:17:24;;;;;;;1.20;1.20;;;;;;;;;;4968175;28;20186;-59
2023/04/04 14:19:50;;;;;;;1.10;1.10;;;;;;;;;;4968069;28;20571;-58
2023/04/04 14:22:16;;;;;;;1.20;1.20;;;;;;;;;;4962427;28;20205;-60
2023/04/04 14:24:42;;;;;;;1.10;1.10;;;;;;;;;;4972280;28;20187;-58
2023/04/04 14:27:08;;;;;;;1.10;1.10;;;;;;;;;;4974707;28;20546;-60
2023/04/04 14:29:34;;;;;;;0.80;0.80;;;;;;;;;;4968525;28;20202;-60
2023/04/04 14:32:00;;;;;;;1.10;1.10;;;;;;;;;;4971277;28;20320;-59
2023/04/04 14:34:26;;;;;;;1.10;1.10;;;;;;;;;;4965338;28;20217;-60
2023/04/04 14:36:53;;;;;;;1.20;1.20;;;;;;;;;;4970840;28;20264;-60
2023/04/04 14:39:19;;;;;;;1.10;1.10;;;;;;;;;;4971623;28;20222;-60
2023/04/04 14:41:45;;;;;;;1.30;1.30;;;;;;;;;;4970028;28;20739;-59